sensor_id;sensor_type;location;lat;lon;timestamp;P1;durP1;ratioP1;P2;durP2;ratioP2
1054;SDS011;516;51.482;7.120;2024-03-23T00:54:39;0.60;;;0.30;;
1054;SDS011;516;51.482;7.120;2024-03-23T00:57:05;0.70;;;0.60;;
1054;SDS011;516;51.482;7.120;2024-03-23T00:59:30;0.60;;;0.53;;
1054;SDS011;516;51.482;7.120;2024-03-23T01:01:56;0.60;;;0.40;;
1054;SDS011;516;51.482;7.120;2024-03-23T01:04:22;0.60;;;0.30;;
1054;SDS011;516;51.482;7.120;2024-03-23T01:06:48;1.07;;;0.93;;
1054;SDS011;516;51.482;7.120;2024-03-23T01:09:14;0.60;;;0.40;;
1054;SDS011;516;51.482;7.120;2024-03-23T01:11:39;0.60;;;0.40;;
1054;SDS011;516;51.482;7.120;2024-03-23T01:14:05;0.60;;;0.40;;
1054;SDS011;516;51.482;7.120;2024-03-23T01:16:31;0.60;;;0.40;;
1054;SDS011;516;51.482;7.120;2024-03-23T01:18:57;0.60;;;0.40;;
1054;SDS011;516;51.482;7.120;2024-03-23T01:21:23;0.60;;;0.40;;
1054;SDS011;516;51.482;7.120;2024-03-23T01:23:49;0.60;;;0.40;;
1054;SDS011;516;51.482;7.120;2024-03-23T01:26:15;0.60;;;0.50;;
1054;SDS011;516;51.482;7.120;2024-03-23T01:28:41;0.60;;;0.40;;
1054;SDS011;516;51.482;7.120;2024-03-23T01:31:07;0.63;;;0.50;;
1054;SDS011;516;51.482;7.120;2024-03-23T01:33:33;0.60;;;0.40;;
1054;SDS011;516;51.482;7.120;2024-03-23T01:35:58;0.60;;;0.40;;
1054;SDS011;516;51.482;7.120;2024-03-23T01:38:24;0.60;;;0.40;;
1054;SDS011;516;51.482;7.120;2024-03-23T01:40:55;0.60;;;0.40;;
1054;SDS011;516;51.482;7.120;2024-03-23T01:43:22;0.60;;;0.40;;
1054;SDS011;516;51.482;7.120;2024-03-23T01:45:48;0.60;;;0.40;;
1054;SDS011;516;51.482;7.120;2024-03-23T01:48:14;0.60;;;0.40;;
1054;SDS011;516;51.482;7.120;2024-03-23T01:50:39;0.60;;;0.40;;
1054;SDS011;516;51.482;7.120;2024-03-23T01:53:05;0.60;;;0.40;;
1054;SDS011;516;51.482;7.120;2024-03-23T01:55:35;0.60;;;0.40;;
1054;SDS011;516;51.482;7.120;2024-03-23T01:58:00;0.60;;;0.40;;
1054;SDS011;516;51.482;7.120;2024-03-23T02:00:26;0.60;;;0.40;;
1054;SDS011;516;51.482;7.120;2024-03-23T02:02:53;0.60;;;0.50;;
1054;SDS011;516;51.482;7.120;2024-03-23T02:05:19;0.60;;;0.40;;
1054;SDS011;516;51.482;7.120;2024-03-23T02:07:45;0.60;;;0.40;;
1054;SDS011;516;51.482;7.120;2024-03-23T02:10:11;0.60;;;0.40;;
1054;SDS011;516;51.482;7.120;2024-03-23T02:12:40;0.60;;;0.40;;
1054;SDS011;516;51.482;7.120;2024-03-23T02:15:06;0.60;;;0.40;;
1054;SDS011;516;51.482;7.120;2024-03-23T02:17:33;0.70;;;0.70;;
1054;SDS011;516;51.482;7.120;2024-03-23T02:20:00;0.60;;;0.40;;
1054;SDS011;516;51.482;7.120;2024-03-23T02:22:36;0.60;;;0.30;;
1054;SDS011;516;51.482;7.120;2024-03-23T02:25:03;0.60;;;0.40;;
1054;SDS011;516;51.482;7.120;2024-03-23T02:27:29;0.60;;;0.40;;
1054;SDS011;516;51.482;7.120;2024-03-23T02:29:55;0.60;;;0.30;;
1054;SDS011;516;51.482;7.120;2024-03-23T02:32:21;0.60;;;0.40;;
1054;SDS011;516;51.482;7.120;2024-03-23T02:34:46;0.60;;;0.40;;
1054;SDS011;516;51.482;7.120;2024-03-23T02:37:12;0.60;;;0.40;;
1054;SDS011;516;51.482;7.120;2024-03-23T02:39:38;0.60;;;0.40;;
1054;SDS011;516;51.482;7.120;2024-03-23T02:42:04;0.60;;;0.40;;
1054;SDS011;516;51.482;7.120;2024-03-23T02:44:30;0.60;;;0.40;;
1054;SDS011;516;51.482;7.120;2024-03-23T02:46:55;0.60;;;0.40;;
1054;SDS011;516;51.482;7.120;2024-03-23T02:49:21;0.60;;;0.40;;
1054;SDS011;516;51.482;7.120;2024-03-23T02:51:47;0.60;;;0.37;;
1054;SDS011;516;51.482;7.120;2024-03-23T02:54:13;0.60;;;0.30;;
1054;SDS011;516;51.482;7.120;2024-03-23T02:56:39;0.60;;;0.30;;
1054;SDS011;516;51.482;7.120;2024-03-23T02:59:05;0.60;;;0.37;;
1054;SDS011;516;51.482;7.120;2024-03-23T03:01:31;0.60;;;0.40;;
1054;SDS011;516;51.482;7.120;2024-03-23T03:03:57;0.60;;;0.40;;
1054;SDS011;516;51.482;7.120;2024-03-23T03:06:23;0.60;;;0.33;;
1054;SDS011;516;51.482;7.120;2024-03-23T03:08:50;0.60;;;0.30;;
1054;SDS011;516;51.482;7.120;2024-03-23T03:11:16;0.60;;;0.40;;
1054;SDS011;516;51.482;7.120;2024-03-23T03:13:42;0.60;;;0.30;;
1054;SDS011;516;51.482;7.120;2024-03-23T03:16:11;0.60;;;0.40;;
1054;SDS011;516;51.482;7.120;2024-03-23T03:18:37;0.60;;;0.40;;
1054;SDS011;516;51.482;7.120;2024-03-23T03:21:05;0.60;;;0.30;;
1054;SDS011;516;51.482;7.120;2024-03-23T03:23:35;0.60;;;0.40;;
1054;SDS011;516;51.482;7.120;2024-03-23T03:26:07;0.60;;;0.43;;
1054;SDS011;516;51.482;7.120;2024-03-23T03:28:33;0.60;;;0.40;;
1054;SDS011;516;51.482;7.120;2024-03-23T03:30:59;1.37;;;1.27;;
1054;SDS011;516;51.482;7.120;2024-03-23T03:33:28;0.60;;;0.40;;
1054;SDS011;516;51.482;7.120;2024-03-23T03:35:54;0.60;;;0.50;;
1054;SDS011;516;51.482;7.120;2024-03-23T03:38:20;0.60;;;0.40;;
1054;SDS011;516;51.482;7.120;2024-03-23T03:40:46;0.60;;;0.40;;
1054;SDS011;516;51.482;7.120;2024-03-23T03:43:12;0.60;;;0.37;;
1054;SDS011;516;51.482;7.120;2024-03-23T03:45:38;0.60;;;0.60;;
1054;SDS011;516;51.482;7.120;2024-03-23T03:48:04;0.60;;;0.40;;
1054;SDS011;516;51.482;7.120;2024-03-23T03:50:29;0.60;;;0.40;;
1054;SDS011;516;51.482;7.120;2024-03-23T03:52:55;1.33;;;1.13;;
1054;SDS011;516;51.482;7.120;2024-03-23T03:55:21;0.60;;;0.30;;
1054;SDS011;516;51.482;7.120;2024-03-23T03:57:47;0.60;;;0.30;;
1054;SDS011;516;51.482;7.120;2024-03-23T04:00:13;0.60;;;0.40;;
1054;SDS011;516;51.482;7.120;2024-03-23T04:02:38;0.60;;;0.50;;
1054;SDS011;516;51.482;7.120;2024-03-23T04:05:05;0.60;;;0.30;;
1054;SDS011;516;51.482;7.120;2024-03-23T04:07:31;0.60;;;0.40;;
1054;SDS011;516;51.482;7.120;2024-03-23T04:09:57;0.60;;;0.30;;
1054;SDS011;516;51.482;7.120;2024-03-23T04:12:23;0.60;;;0.40;;
1054;SDS011;516;51.482;7.120;2024-03-23T04:14:49;0.60;;;0.30;;
1054;SDS011;516;51.482;7.120;2024-03-23T04:17:14;0.60;;;0.40;;
1054;SDS011;516;51.482;7.120;2024-03-23T04:19:41;0.60;;;0.40;;
1054;SDS011;516;51.482;7.120;2024-03-23T04:22:07;0.60;;;0.40;;
1054;SDS011;516;51.482;7.120;2024-03-23T04:24:33;0.60;;;0.30;;
1054;SDS011;516;51.482;7.120;2024-03-23T04:26:59;0.60;;;0.40;;
1054;SDS011;516;51.482;7.120;2024-03-23T04:29:24;0.60;;;0.30;;
1054;SDS011;516;51.482;7.120;2024-03-23T04:31:52;0.60;;;0.40;;
1054;SDS011;516;51.482;7.120;2024-03-23T04:34:17;0.70;;;0.63;;
1054;SDS011;516;51.482;7.120;2024-03-23T04:36:44;1.20;;;1.17;;
1054;SDS011;516;51.482;7.120;2024-03-23T04:39:09;0.50;;;0.33;;
1054;SDS011;516;51.482;7.120;2024-03-23T04:41:35;0.60;;;0.40;;
1054;SDS011;516;51.482;7.120;2024-03-23T04:44:01;1.63;;;1.33;;
1054;SDS011;516;51.482;7.120;2024-03-23T04:46:27;0.60;;;0.40;;
1054;SDS011;516;51.482;7.120;2024-03-23T04:48:52;0.60;;;0.33;;
1054;SDS011;516;51.482;7.120;2024-03-23T04:51:21;0.60;;;0.40;;
1054;SDS011;516;51.482;7.120;2024-03-23T04:53:48;0.60;;;0.40;;
1054;SDS011;516;51.482;7.120;2024-03-23T04:56:14;0.60;;;0.30;;
1054;SDS011;516;51.482;7.120;2024-03-23T04:58:43;0.60;;;0.40;;
1054;SDS011;516;51.482;7.120;2024-03-23T05:01:10;0.60;;;0.30;;
1054;SDS011;516;51.482;7.120;2024-03-23T05:03:35;0.60;;;0.50;;
1054;SDS011;516;51.482;7.120;2024-03-23T05:06:01;0.60;;;0.40;;
1054;SDS011;516;51.482;7.120;2024-03-23T05:08:27;0.60;;;0.40;;
1054;SDS011;516;51.482;7.120;2024-03-23T05:10:53;0.60;;;0.40;;
1054;SDS011;516;51.482;7.120;2024-03-23T05:13:18;0.70;;;0.70;;
1054;SDS011;516;51.482;7.120;2024-03-23T05:15:44;0.60;;;0.40;;
1054;SDS011;516;51.482;7.120;2024-03-23T05:18:15;0.60;;;0.40;;
1054;SDS011;516;51.482;7.120;2024-03-23T05:20:41;1.43;;;1.33;;
1054;SDS011;516;51.482;7.120;2024-03-23T05:23:07;0.60;;;0.40;;
1054;SDS011;516;51.482;7.120;2024-03-23T05:25:32;0.60;;;0.40;;
1054;SDS011;516;51.482;7.120;2024-03-23T05:27:59;0.60;;;0.40;;
1054;SDS011;516;51.482;7.120;2024-03-23T05:30:24;0.60;;;0.40;;
1054;SDS011;516;51.482;7.120;2024-03-23T05:32:50;0.60;;;0.40;;
1054;SDS011;516;51.482;7.120;2024-03-23T05:35:15;0.60;;;0.40;;
1054;SDS011;516;51.482;7.120;2024-03-23T05:37:41;1.20;;;1.07;;
1054;SDS011;516;51.482;7.120;2024-03-23T05:40:07;0.60;;;0.50;;
1054;SDS011;516;51.482;7.120;2024-03-23T05:42:34;0.60;;;0.33;;
1054;SDS011;516;51.482;7.120;2024-03-23T05:45:00;0.60;;;0.40;;
1054;SDS011;516;51.482;7.120;2024-03-23T05:47:25;0.50;;;0.30;;
1054;SDS011;516;51.482;7.120;2024-03-23T05:49:51;0.60;;;0.40;;
1054;SDS011;516;51.482;7.120;2024-03-23T05:52:17;0.60;;;0.40;;
1054;SDS011;516;51.482;7.120;2024-03-23T05:54:43;0.60;;;0.40;;
1054;SDS011;516;51.482;7.120;2024-03-23T05:57:08;0.60;;;0.30;;
1054;SDS011;516;51.482;7.120;2024-03-23T05:59:34;0.60;;;0.40;;
1054;SDS011;516;51.482;7.120;2024-03-23T06:02:00;0.60;;;0.40;;
1054;SDS011;516;51.482;7.120;2024-03-23T06:04:25;0.60;;;0.40;;
1054;SDS011;516;51.482;7.120;2024-03-23T06:06:51;0.60;;;0.30;;
1054;SDS011;516;51.482;7.120;2024-03-23T06:09:17;0.60;;;0.37;;
1054;SDS011;516;51.482;7.120;2024-03-23T06:11:44;0.60;;;0.37;;
1054;SDS011;516;51.482;7.120;2024-03-23T06:14:10;0.60;;;0.30;;
1054;SDS011;516;51.482;7.120;2024-03-23T06:16:36;0.60;;;0.40;;
1054;SDS011;516;51.482;7.120;2024-03-23T06:19:01;0.70;;;0.70;;
1054;SDS011;516;51.482;7.120;2024-03-23T06:21:29;0.57;;;0.40;;
1054;SDS011;516;51.482;7.120;2024-03-23T06:23:58;0.60;;;0.30;;
1054;SDS011;516;51.482;7.120;2024-03-23T06:26:23;0.60;;;0.40;;
1054;SDS011;516;51.482;7.120;2024-03-23T06:28:49;0.50;;;0.40;;
1054;SDS011;516;51.482;7.120;2024-03-23T06:31:15;0.60;;;0.30;;
1054;SDS011;516;51.482;7.120;2024-03-23T06:33:40;0.60;;;0.40;;
1054;SDS011;516;51.482;7.120;2024-03-23T06:36:08;0.60;;;0.40;;
1054;SDS011;516;51.482;7.120;2024-03-23T06:38:35;0.80;;;0.80;;
1054;SDS011;516;51.482;7.120;2024-03-23T06:41:04;0.70;;;0.70;;
1054;SDS011;516;51.482;7.120;2024-03-23T06:43:30;0.70;;;0.70;;
1054;SDS011;516;51.482;7.120;2024-03-23T06:45:56;0.70;;;0.70;;
1054;SDS011;516;51.482;7.120;2024-03-23T06:48:22;0.70;;;0.70;;
1054;SDS011;516;51.482;7.120;2024-03-23T06:50:47;0.70;;;0.70;;
1054;SDS011;516;51.482;7.120;2024-03-23T06:53:14;0.70;;;0.70;;
1054;SDS011;516;51.482;7.120;2024-03-23T06:55:40;0.73;;;0.73;;
1054;SDS011;516;51.482;7.120;2024-03-23T06:58:05;0.80;;;0.80;;
1054;SDS011;516;51.482;7.120;2024-03-23T07:00:31;0.80;;;0.80;;
1054;SDS011;516;51.482;7.120;2024-03-23T07:02:58;0.63;;;0.63;;
1054;SDS011;516;51.482;7.120;2024-03-23T07:05:24;0.60;;;0.60;;
1054;SDS011;516;51.482;7.120;2024-03-23T07:07:50;0.70;;;0.70;;
1054;SDS011;516;51.482;7.120;2024-03-23T07:10:15;0.63;;;0.63;;
1054;SDS011;516;51.482;7.120;2024-03-23T07:12:41;0.67;;;0.67;;
1054;SDS011;516;51.482;7.120;2024-03-23T07:15:07;0.60;;;0.60;;
1054;SDS011;516;51.482;7.120;2024-03-23T07:17:33;0.60;;;0.60;;
1054;SDS011;516;51.482;7.120;2024-03-23T07:20:00;0.70;;;0.60;;
1054;SDS011;516;51.482;7.120;2024-03-23T07:22:29;0.70;;;0.60;;
1054;SDS011;516;51.482;7.120;2024-03-23T07:24:56;0.70;;;0.70;;
1054;SDS011;516;51.482;7.120;2024-03-23T07:27:24;0.60;;;0.60;;
1054;SDS011;516;51.482;7.120;2024-03-23T07:29:51;0.60;;;0.60;;
1054;SDS011;516;51.482;7.120;2024-03-23T07:32:16;0.93;;;0.93;;
1054;SDS011;516;51.482;7.120;2024-03-23T07:34:42;1.00;;;1.00;;
1054;SDS011;516;51.482;7.120;2024-03-23T07:37:09;0.90;;;0.90;;
1054;SDS011;516;51.482;7.120;2024-03-23T07:39:35;1.10;;;1.10;;
1054;SDS011;516;51.482;7.120;2024-03-23T07:42:01;2.40;;;2.30;;
1054;SDS011;516;51.482;7.120;2024-03-23T07:44:27;2.10;;;2.00;;
1054;SDS011;516;51.482;7.120;2024-03-23T07:46:53;2.00;;;1.90;;
1054;SDS011;516;51.482;7.120;2024-03-23T07:49:19;2.47;;;2.37;;
1054;SDS011;516;51.482;7.120;2024-03-23T07:51:44;2.50;;;2.40;;
1054;SDS011;516;51.482;7.120;2024-03-23T07:54:10;1.27;;;1.27;;
1054;SDS011;516;51.482;7.120;2024-03-23T07:56:36;1.30;;;1.30;;
1054;SDS011;516;51.482;7.120;2024-03-23T07:59:02;2.20;;;2.10;;
1054;SDS011;516;51.482;7.120;2024-03-23T08:01:30;2.03;;;1.93;;
1054;SDS011;516;51.482;7.120;2024-03-23T08:03:56;2.20;;;2.10;;
1054;SDS011;516;51.482;7.120;2024-03-23T08:06:22;1.08;;;1.08;;
1054;SDS011;516;51.482;7.120;2024-03-23T08:08:49;1.30;;;1.30;;
1054;SDS011;516;51.482;7.120;2024-03-23T08:11:25;1.10;;;1.10;;
1054;SDS011;516;51.482;7.120;2024-03-23T08:13:51;1.00;;;1.00;;
1054;SDS011;516;51.482;7.120;2024-03-23T08:16:17;1.20;;;1.20;;
1054;SDS011;516;51.482;7.120;2024-03-23T08:18:43;0.90;;;0.90;;
1054;SDS011;516;51.482;7.120;2024-03-23T08:21:09;0.93;;;0.93;;
1054;SDS011;516;51.482;7.120;2024-03-23T08:23:37;1.00;;;1.00;;
1054;SDS011;516;51.482;7.120;2024-03-23T08:26:06;1.00;;;1.00;;
1054;SDS011;516;51.482;7.120;2024-03-23T08:28:33;0.90;;;0.90;;
1054;SDS011;516;51.482;7.120;2024-03-23T08:31:09;1.00;;;1.00;;
1054;SDS011;516;51.482;7.120;2024-03-23T08:33:36;1.00;;;1.00;;
1054;SDS011;516;51.482;7.120;2024-03-23T08:36:04;1.00;;;1.00;;
1054;SDS011;516;51.482;7.120;2024-03-23T08:38:31;0.90;;;0.90;;
1054;SDS011;516;51.482;7.120;2024-03-23T08:41:03;1.00;;;1.00;;
1054;SDS011;516;51.482;7.120;2024-03-23T08:43:34;0.90;;;0.90;;
1054;SDS011;516;51.482;7.120;2024-03-23T08:46:08;0.80;;;0.80;;
1054;SDS011;516;51.482;7.120;2024-03-23T08:48:35;1.00;;;1.00;;
1054;SDS011;516;51.482;7.120;2024-03-23T08:51:03;0.70;;;0.70;;
1054;SDS011;516;51.482;7.120;2024-03-23T08:53:29;0.70;;;0.70;;
1054;SDS011;516;51.482;7.120;2024-03-23T08:55:56;0.70;;;0.70;;
1054;SDS011;516;51.482;7.120;2024-03-23T08:58:23;0.80;;;0.80;;
1054;SDS011;516;51.482;7.120;2024-03-23T09:00:51;0.80;;;0.80;;
1054;SDS011;516;51.482;7.120;2024-03-23T09:03:17;0.80;;;0.80;;
1054;SDS011;516;51.482;7.120;2024-03-23T09:05:43;1.00;;;1.00;;
1054;SDS011;516;51.482;7.120;2024-03-23T09:08:09;0.70;;;0.70;;
1054;SDS011;516;51.482;7.120;2024-03-23T09:10:39;0.60;;;0.60;;
1054;SDS011;516;51.482;7.120;2024-03-23T09:13:05;0.70;;;0.70;;
1054;SDS011;516;51.482;7.120;2024-03-23T09:15:32;0.70;;;0.70;;
1054;SDS011;516;51.482;7.120;2024-03-23T09:18:02;0.80;;;0.80;;
1054;SDS011;516;51.482;7.120;2024-03-23T09:20:29;0.70;;;0.70;;
1054;SDS011;516;51.482;7.120;2024-03-23T09:22:58;0.80;;;0.80;;
1054;SDS011;516;51.482;7.120;2024-03-23T09:25:23;0.83;;;0.83;;
1054;SDS011;516;51.482;7.120;2024-03-23T09:27:50;1.00;;;1.00;;
1054;SDS011;516;51.482;7.120;2024-03-23T09:30:16;0.90;;;0.90;;
1054;SDS011;516;51.482;7.120;2024-03-23T09:32:42;1.00;;;1.00;;
1054;SDS011;516;51.482;7.120;2024-03-23T09:35:09;1.00;;;1.00;;
1054;SDS011;516;51.482;7.120;2024-03-23T09:37:35;1.00;;;1.00;;
1054;SDS011;516;51.482;7.120;2024-03-23T09:40:01;1.00;;;1.00;;
1054;SDS011;516;51.482;7.120;2024-03-23T09:42:28;1.10;;;1.10;;
1054;SDS011;516;51.482;7.120;2024-03-23T09:44:53;1.10;;;1.10;;
1054;SDS011;516;51.482;7.120;2024-03-23T09:47:22;0.80;;;0.80;;
1054;SDS011;516;51.482;7.120;2024-03-23T09:49:50;0.90;;;0.90;;
1054;SDS011;516;51.482;7.120;2024-03-23T09:52:16;1.00;;;1.00;;
1054;SDS011;516;51.482;7.120;2024-03-23T09:54:42;1.00;;;1.00;;
1054;SDS011;516;51.482;7.120;2024-03-23T09:57:07;1.00;;;1.00;;
1054;SDS011;516;51.482;7.120;2024-03-23T09:59:33;0.90;;;0.90;;
1054;SDS011;516;51.482;7.120;2024-03-23T10:02:00;1.00;;;1.00;;
1054;SDS011;516;51.482;7.120;2024-03-23T10:04:38;1.00;;;1.00;;
1054;SDS011;516;51.482;7.120;2024-03-23T10:07:12;1.10;;;1.10;;
1054;SDS011;516;51.482;7.120;2024-03-23T10:09:39;1.00;;;1.00;;
1054;SDS011;516;51.482;7.120;2024-03-23T10:12:11;1.00;;;1.00;;
1054;SDS011;516;51.482;7.120;2024-03-23T10:14:42;0.90;;;0.90;;
1054;SDS011;516;51.482;7.120;2024-03-23T10:17:12;0.97;;;0.97;;
1054;SDS011;516;51.482;7.120;2024-03-23T10:19:39;1.10;;;1.10;;
1054;SDS011;516;51.482;7.120;2024-03-23T10:22:06;1.00;;;1.00;;
1054;SDS011;516;51.482;7.120;2024-03-23T10:24:32;1.00;;;1.00;;
1054;SDS011;516;51.482;7.120;2024-03-23T10:26:57;1.00;;;1.00;;
1054;SDS011;516;51.482;7.120;2024-03-23T10:29:23;1.00;;;1.00;;
1054;SDS011;516;51.482;7.120;2024-03-23T10:31:52;1.07;;;1.07;;
1054;SDS011;516;51.482;7.120;2024-03-23T10:34:24;1.10;;;1.10;;
1054;SDS011;516;51.482;7.120;2024-03-23T10:36:53;1.00;;;1.00;;
1054;SDS011;516;51.482;7.120;2024-03-23T10:39:20;1.10;;;1.10;;
1054;SDS011;516;51.482;7.120;2024-03-23T10:41:48;1.03;;;1.03;;
1054;SDS011;516;51.482;7.120;2024-03-23T10:44:17;1.00;;;1.00;;
1054;SDS011;516;51.482;7.120;2024-03-23T10:46:44;0.80;;;0.80;;
1054;SDS011;516;51.482;7.120;2024-03-23T10:49:10;0.97;;;0.97;;
1054;SDS011;516;51.482;7.120;2024-03-23T10:51:36;1.00;;;1.00;;
1054;SDS011;516;51.482;7.120;2024-03-23T10:54:05;0.87;;;0.87;;
1054;SDS011;516;51.482;7.120;2024-03-23T10:56:32;0.90;;;0.90;;
1054;SDS011;516;51.482;7.120;2024-03-23T10:59:01;0.90;;;0.90;;
1054;SDS011;516;51.482;7.120;2024-03-23T11:01:28;1.00;;;1.00;;
1054;SDS011;516;51.482;7.120;2024-03-23T11:03:53;1.10;;;1.10;;
1054;SDS011;516;51.482;7.120;2024-03-23T11:06:35;0.87;;;0.87;;
1054;SDS011;516;51.482;7.120;2024-03-23T11:09:02;0.80;;;0.80;;
1054;SDS011;516;51.482;7.120;2024-03-23T11:11:28;0.90;;;0.90;;
1054;SDS011;516;51.482;7.120;2024-03-23T11:13:57;1.40;;;1.30;;
1054;SDS011;516;51.482;7.120;2024-03-23T11:16:23;0.90;;;0.90;;
1054;SDS011;516;51.482;7.120;2024-03-23T11:18:51;1.00;;;1.00;;
1054;SDS011;516;51.482;7.120;2024-03-23T11:24:20;1.13;;;1.13;;
1054;SDS011;516;51.482;7.120;2024-03-23T11:26:47;1.10;;;1.10;;
1054;SDS011;516;51.482;7.120;2024-03-23T11:29:16;1.10;;;1.10;;
1054;SDS011;516;51.482;7.120;2024-03-23T11:31:52;1.00;;;1.00;;
1054;SDS011;516;51.482;7.120;2024-03-23T11:34:19;1.00;;;1.00;;
1054;SDS011;516;51.482;7.120;2024-03-23T11:36:45;1.10;;;1.10;;
1054;SDS011;516;51.482;7.120;2024-03-23T11:39:15;1.30;;;1.30;;
1054;SDS011;516;51.482;7.120;2024-03-23T11:41:48;1.33;;;1.33;;
1054;SDS011;516;51.482;7.120;2024-03-23T11:44:16;1.47;;;1.37;;
1054;SDS011;516;51.482;7.120;2024-03-23T11:46:46;1.40;;;1.40;;
1054;SDS011;516;51.482;7.120;2024-03-23T11:49:24;0.77;;;0.77;;
1054;SDS011;516;51.482;7.120;2024-03-23T11:51:52;1.50;;;1.40;;
1054;SDS011;516;51.482;7.120;2024-03-23T11:54:23;1.50;;;1.40;;
1054;SDS011;516;51.482;7.120;2024-03-23T11:56:56;1.70;;;1.60;;
1054;SDS011;516;51.482;7.120;2024-03-23T12:04:41;0.70;;;0.70;;
1054;SDS011;516;51.482;7.120;2024-03-23T12:07:17;1.90;;;1.80;;
1054;SDS011;516;51.482;7.120;2024-03-23T12:09:44;1.90;;;1.80;;
1054;SDS011;516;51.482;7.120;2024-03-23T12:12:14;0.60;;;0.60;;
1054;SDS011;516;51.482;7.120;2024-03-23T12:14:44;1.10;;;1.10;;
1054;SDS011;516;51.482;7.120;2024-03-23T12:17:14;0.93;;;0.93;;
1054;SDS011;516;51.482;7.120;2024-03-23T12:19:40;1.00;;;1.00;;
1054;SDS011;516;51.482;7.120;2024-03-23T12:22:07;1.00;;;1.00;;
1054;SDS011;516;51.482;7.120;2024-03-23T12:24:34;1.00;;;1.00;;
1054;SDS011;516;51.482;7.120;2024-03-23T12:27:00;0.60;;;0.60;;
1054;SDS011;516;51.482;7.120;2024-03-23T12:29:30;0.90;;;0.90;;
1054;SDS011;516;51.482;7.120;2024-03-23T12:32:00;1.10;;;1.10;;
1054;SDS011;516;51.482;7.120;2024-03-23T12:34:27;0.97;;;0.97;;
1054;SDS011;516;51.482;7.120;2024-03-23T12:36:54;0.80;;;0.80;;
1054;SDS011;516;51.482;7.120;2024-03-23T12:39:20;0.60;;;0.60;;
1054;SDS011;516;51.482;7.120;2024-03-23T12:41:48;0.80;;;0.80;;
1054;SDS011;516;51.482;7.120;2024-03-23T12:44:14;0.60;;;0.40;;
1054;SDS011;516;51.482;7.120;2024-03-23T12:46:40;0.60;;;0.50;;
1054;SDS011;516;51.482;7.120;2024-03-23T12:49:06;0.60;;;0.50;;
1054;SDS011;516;51.482;7.120;2024-03-23T12:51:33;0.60;;;0.50;;
1054;SDS011;516;51.482;7.120;2024-03-23T12:53:59;0.60;;;0.50;;
1054;SDS011;516;51.482;7.120;2024-03-23T12:56:25;0.60;;;0.50;;
1054;SDS011;516;51.482;7.120;2024-03-23T12:58:53;0.60;;;0.40;;
1054;SDS011;516;51.482;7.120;2024-03-23T13:01:20;0.60;;;0.40;;
1054;SDS011;516;51.482;7.120;2024-03-23T13:03:46;0.60;;;0.40;;
1054;SDS011;516;51.482;7.120;2024-03-23T13:06:12;0.80;;;0.80;;
1054;SDS011;516;51.482;7.120;2024-03-23T13:08:38;0.70;;;0.70;;
1054;SDS011;516;51.482;7.120;2024-03-23T13:11:05;0.70;;;0.70;;
1054;SDS011;516;51.482;7.120;2024-03-23T13:13:35;0.90;;;0.90;;
1054;SDS011;516;51.482;7.120;2024-03-23T13:16:04;0.90;;;0.90;;
1054;SDS011;516;51.482;7.120;2024-03-23T13:18:31;0.80;;;0.80;;
1054;SDS011;516;51.482;7.120;2024-03-23T13:20:57;0.80;;;0.80;;
1054;SDS011;516;51.482;7.120;2024-03-23T13:23:23;1.87;;;1.77;;
1054;SDS011;516;51.482;7.120;2024-03-23T13:25:54;1.00;;;1.00;;
1054;SDS011;516;51.482;7.120;2024-03-23T13:28:21;1.10;;;1.10;;
1054;SDS011;516;51.482;7.120;2024-03-23T13:30:54;1.00;;;1.00;;
1054;SDS011;516;51.482;7.120;2024-03-23T13:33:21;0.90;;;0.90;;
1054;SDS011;516;51.482;7.120;2024-03-23T13:35:53;0.90;;;0.90;;
1054;SDS011;516;51.482;7.120;2024-03-23T13:38:22;0.90;;;0.90;;
1054;SDS011;516;51.482;7.120;2024-03-23T13:40:55;1.10;;;1.10;;
1054;SDS011;516;51.482;7.120;2024-03-23T13:43:22;1.00;;;1.00;;
1054;SDS011;516;51.482;7.120;2024-03-23T13:45:51;1.17;;;1.17;;
1054;SDS011;516;51.482;7.120;2024-03-23T13:48:22;1.13;;;1.13;;
1054;SDS011;516;51.482;7.120;2024-03-23T13:51:02;1.03;;;1.03;;
1054;SDS011;516;51.482;7.120;2024-03-23T13:53:29;1.10;;;1.10;;
1054;SDS011;516;51.482;7.120;2024-03-23T13:55:55;1.10;;;1.10;;
1054;SDS011;516;51.482;7.120;2024-03-23T13:58:21;0.90;;;0.90;;
1054;SDS011;516;51.482;7.120;2024-03-23T14:00:48;1.00;;;1.00;;
1054;SDS011;516;51.482;7.120;2024-03-23T14:03:14;1.03;;;1.03;;
1054;SDS011;516;51.482;7.120;2024-03-23T14:05:40;0.90;;;0.90;;
1054;SDS011;516;51.482;7.120;2024-03-23T14:08:06;0.90;;;0.90;;
1054;SDS011;516;51.482;7.120;2024-03-23T14:10:33;0.60;;;0.50;;
1054;SDS011;516;51.482;7.120;2024-03-23T14:12:58;1.20;;;1.20;;
1054;SDS011;516;51.482;7.120;2024-03-23T14:15:28;0.90;;;0.90;;
1054;SDS011;516;51.482;7.120;2024-03-23T14:17:55;0.80;;;0.80;;
1054;SDS011;516;51.482;7.120;2024-03-23T14:20:21;0.80;;;0.80;;
1054;SDS011;516;51.482;7.120;2024-03-23T14:22:50;1.00;;;1.00;;
1054;SDS011;516;51.482;7.120;2024-03-23T14:25:16;0.60;;;0.60;;
1054;SDS011;516;51.482;7.120;2024-03-23T14:27:45;0.60;;;0.60;;
1054;SDS011;516;51.482;7.120;2024-03-23T14:30:12;0.60;;;0.43;;
1054;SDS011;516;51.482;7.120;2024-03-23T14:32:39;0.60;;;0.60;;
1054;SDS011;516;51.482;7.120;2024-03-23T14:35:05;0.60;;;0.50;;
1054;SDS011;516;51.482;7.120;2024-03-23T14:37:38;0.60;;;0.50;;
1054;SDS011;516;51.482;7.120;2024-03-23T14:40:07;0.60;;;0.40;;
1054;SDS011;516;51.482;7.120;2024-03-23T14:42:33;0.60;;;0.50;;
1054;SDS011;516;51.482;7.120;2024-03-23T14:44:59;0.60;;;0.40;;
1054;SDS011;516;51.482;7.120;2024-03-23T14:47:24;1.33;;;1.33;;
1054;SDS011;516;51.482;7.120;2024-03-23T14:49:50;1.50;;;1.40;;
1054;SDS011;516;51.482;7.120;2024-03-23T14:52:16;1.10;;;1.10;;
1054;SDS011;516;51.482;7.120;2024-03-23T14:54:43;1.00;;;1.00;;
1054;SDS011;516;51.482;7.120;2024-03-23T14:57:09;0.90;;;0.90;;
1054;SDS011;516;51.482;7.120;2024-03-23T14:59:35;0.70;;;0.60;;
1054;SDS011;516;51.482;7.120;2024-03-23T15:02:03;0.60;;;0.60;;
1054;SDS011;516;51.482;7.120;2024-03-23T15:04:29;0.60;;;0.60;;
1054;SDS011;516;51.482;7.120;2024-03-23T15:06:55;0.60;;;0.40;;
1054;SDS011;516;51.482;7.120;2024-03-23T15:09:21;1.90;;;1.80;;
1054;SDS011;516;51.482;7.120;2024-03-23T15:11:46;0.60;;;0.40;;
1054;SDS011;516;51.482;7.120;2024-03-23T15:14:12;0.60;;;0.40;;
1054;SDS011;516;51.482;7.120;2024-03-23T15:16:38;0.60;;;0.40;;
1054;SDS011;516;51.482;7.120;2024-03-23T15:19:04;0.60;;;0.40;;
1054;SDS011;516;51.482;7.120;2024-03-23T15:21:31;0.60;;;0.40;;
1054;SDS011;516;51.482;7.120;2024-03-23T15:23:57;0.60;;;0.40;;
1054;SDS011;516;51.482;7.120;2024-03-23T15:26:23;0.60;;;0.40;;
1054;SDS011;516;51.482;7.120;2024-03-23T15:28:49;0.60;;;0.40;;
1054;SDS011;516;51.482;7.120;2024-03-23T15:31:23;0.60;;;0.40;;
1054;SDS011;516;51.482;7.120;2024-03-23T15:33:50;0.60;;;0.33;;
1054;SDS011;516;51.482;7.120;2024-03-23T15:36:16;0.60;;;0.30;;
1054;SDS011;516;51.482;7.120;2024-03-23T15:38:42;0.60;;;0.30;;
1054;SDS011;516;51.482;7.120;2024-03-23T15:41:09;0.60;;;0.40;;
1054;SDS011;516;51.482;7.120;2024-03-23T15:43:35;0.60;;;0.40;;
1054;SDS011;516;51.482;7.120;2024-03-23T15:46:02;0.60;;;0.40;;
1054;SDS011;516;51.482;7.120;2024-03-23T15:48:29;0.60;;;0.40;;
1054;SDS011;516;51.482;7.120;2024-03-23T15:50:56;0.60;;;0.40;;
1054;SDS011;516;51.482;7.120;2024-03-23T15:53:23;0.60;;;0.40;;
1054;SDS011;516;51.482;7.120;2024-03-23T15:55:56;0.60;;;0.40;;
1054;SDS011;516;51.482;7.120;2024-03-23T15:58:23;0.60;;;0.40;;
1054;SDS011;516;51.482;7.120;2024-03-23T16:00:55;0.60;;;0.30;;
1054;SDS011;516;51.482;7.120;2024-03-23T16:03:21;0.60;;;0.40;;
1054;SDS011;516;51.482;7.120;2024-03-23T16:05:54;0.60;;;0.50;;
1054;SDS011;516;51.482;7.120;2024-03-23T16:08:21;0.60;;;0.40;;
1054;SDS011;516;51.482;7.120;2024-03-23T16:10:47;0.60;;;0.40;;
1054;SDS011;516;51.482;7.120;2024-03-23T16:13:13;0.60;;;0.40;;
1054;SDS011;516;51.482;7.120;2024-03-23T16:15:39;0.60;;;0.40;;
1054;SDS011;516;51.482;7.120;2024-03-23T16:18:05;0.60;;;0.30;;
1054;SDS011;516;51.482;7.120;2024-03-23T16:20:31;0.60;;;0.40;;
1054;SDS011;516;51.482;7.120;2024-03-23T16:23:00;0.60;;;0.40;;
1054;SDS011;516;51.482;7.120;2024-03-23T16:25:26;0.60;;;0.40;;
1054;SDS011;516;51.482;7.120;2024-03-23T16:27:52;0.60;;;0.40;;
1054;SDS011;516;51.482;7.120;2024-03-23T16:30:18;0.60;;;0.40;;